sensor_id;sensor_type;location;lat;lon;timestamp;temperature;humidity
52787;DHT22;38661;53.152;5.846;2023-08-12T00:00:09;18.80;93.40
52787;DHT22;38661;53.152;5.846;2023-08-12T00:02:39;18.80;93.00
52787;DHT22;38661;53.152;5.846;2023-08-12T00:05:06;18.80;93.10
52787;DHT22;38661;53.152;5.846;2023-08-12T00:07:35;18.80;93.20
52787;DHT22;38661;53.152;5.846;2023-08-12T00:10:02;18.80;93.10
52787;DHT22;38661;53.152;5.846;2023-08-12T00:12:33;18.80;92.90
52787;DHT22;38661;53.152;5.846;2023-08-12T00:14:59;18.80;92.90
52787;DHT22;38661;53.152;5.846;2023-08-12T00:17:25;18.90;92.70
52787;DHT22;38661;53.152;5.846;2023-08-12T00:19:51;18.90;93.10
52787;DHT22;38661;53.152;5.846;2023-08-12T00:22:16;18.90;93.10
52787;DHT22;38661;53.152;5.846;2023-08-12T00:24:42;18.80;93.10
52787;DHT22;38661;53.152;5.846;2023-08-12T00:27:08;18.80;93.10
52787;DHT22;38661;53.152;5.846;2023-08-12T00:29:35;18.80;93.50
52787;DHT22;38661;53.152;5.846;2023-08-12T00:32:01;18.70;93.50
52787;DHT22;38661;53.152;5.846;2023-08-12T00:34:26;18.70;93.40
52787;DHT22;38661;53.152;5.846;2023-08-12T00:36:52;18.70;93.20
52787;DHT22;38661;53.152;5.846;2023-08-12T00:39:18;18.70;93.10
52787;DHT22;38661;53.152;5.846;2023-08-12T00:41:43;18.70;93.40
52787;DHT22;38661;53.152;5.846;2023-08-12T00:44:09;18.70;93.40
52787;DHT22;38661;53.152;5.846;2023-08-12T00:46:36;18.70;93.60
52787;DHT22;38661;53.152;5.846;2023-08-12T00:49:03;18.70;93.30
52787;DHT22;38661;53.152;5.846;2023-08-12T00:51:29;18.70;93.20
52787;DHT22;38661;53.152;5.846;2023-08-12T00:53:58;18.60;93.30
52787;DHT22;38661;53.152;5.846;2023-08-12T00:56:25;18.60;93.60
52787;DHT22;38661;53.152;5.846;2023-08-12T00:58:52;18.60;93.60
52787;DHT22;38661;53.152;5.846;2023-08-12T01:01:19;18.60;93.50
52787;DHT22;38661;53.152;5.846;2023-08-12T01:03:45;18.60;93.50
52787;DHT22;38661;53.152;5.846;2023-08-12T01:06:12;18.60;93.70
52787;DHT22;38661;53.152;5.846;2023-08-12T01:08:38;18.60;93.30
52787;DHT22;38661;53.152;5.846;2023-08-12T01:11:21;18.50;93.70
52787;DHT22;38661;53.152;5.846;2023-08-12T01:16:45;18.50;93.70
52787;DHT22;38661;53.152;5.846;2023-08-12T01:19:33;18.50;93.60
52787;DHT22;38661;53.152;5.846;2023-08-12T01:22:01;18.50;93.60
52787;DHT22;38661;53.152;5.846;2023-08-12T01:24:27;18.50;93.70
52787;DHT22;38661;53.152;5.846;2023-08-12T01:26:59;18.50;94.30
52787;DHT22;38661;53.152;5.846;2023-08-12T01:29:25;18.50;94.20
52787;DHT22;38661;53.152;5.846;2023-08-12T01:32:13;18.40;94.10
52787;DHT22;38661;53.152;5.846;2023-08-12T01:37:26;18.40;94.10
52787;DHT22;38661;53.152;5.846;2023-08-12T01:39:54;18.40;94.00
52787;DHT22;38661;53.152;5.846;2023-08-12T01:42:20;18.40;94.10
52787;DHT22;38661;53.152;5.846;2023-08-12T01:44:48;18.40;94.00
52787;DHT22;38661;53.152;5.846;2023-08-12T01:47:14;18.40;93.80
52787;DHT22;38661;53.152;5.846;2023-08-12T01:49:39;18.40;93.80
52787;DHT22;38661;53.152;5.846;2023-08-12T01:52:05;18.40;93.80
52787;DHT22;38661;53.152;5.846;2023-08-12T01:54:31;18.40;94.20
52787;DHT22;38661;53.152;5.846;2023-08-12T01:57:03;18.40;94.50
52787;DHT22;38661;53.152;5.846;2023-08-12T01:59:31;18.40;94.30
52787;DHT22;38661;53.152;5.846;2023-08-12T02:01:57;18.40;94.60
52787;DHT22;38661;53.152;5.846;2023-08-12T02:04:23;18.40;94.40
52787;DHT22;38661;53.152;5.846;2023-08-12T02:06:49;18.40;94.30
52787;DHT22;38661;53.152;5.846;2023-08-12T02:09:15;18.40;94.20
52787;DHT22;38661;53.152;5.846;2023-08-12T02:11:41;18.50;94.50
52787;DHT22;38661;53.152;5.846;2023-08-12T02:14:06;18.40;94.80
52787;DHT22;38661;53.152;5.846;2023-08-12T02:16:32;18.50;94.70
52787;DHT22;38661;53.152;5.846;2023-08-12T02:18:58;18.50;94.60
52787;DHT22;38661;53.152;5.846;2023-08-12T02:21:23;18.50;94.50
52787;DHT22;38661;53.152;5.846;2023-08-12T02:23:49;18.50;94.40
52787;DHT22;38661;53.152;5.846;2023-08-12T02:26:15;18.50;94.40
52787;DHT22;38661;53.152;5.846;2023-08-12T02:28:41;18.50;94.20
52787;DHT22;38661;53.152;5.846;2023-08-12T02:31:07;18.50;94.30
52787;DHT22;38661;53.152;5.846;2023-08-12T02:33:33;18.50;94.60
52787;DHT22;38661;53.152;5.846;2023-08-12T02:35:58;18.50;94.50
52787;DHT22;38661;53.152;5.846;2023-08-12T02:38:24;18.60;94.40
52787;DHT22;38661;53.152;5.846;2023-08-12T02:40:50;18.60;94.30
52787;DHT22;38661;53.152;5.846;2023-08-12T02:43:17;18.50;94.20
52787;DHT22;38661;53.152;5.846;2023-08-12T02:45:43;18.60;94.20
52787;DHT22;38661;53.152;5.846;2023-08-12T02:48:10;18.60;94.50
52787;DHT22;38661;53.152;5.846;2023-08-12T02:50:35;18.60;94.50
52787;DHT22;38661;53.152;5.846;2023-08-12T02:53:02;18.70;94.40
52787;DHT22;38661;53.152;5.846;2023-08-12T02:55:28;18.70;94.30
52787;DHT22;38661;53.152;5.846;2023-08-12T02:57:54;18.70;94.20
52787;DHT22;38661;53.152;5.846;2023-08-12T03:00:20;18.70;94.40
52787;DHT22;38661;53.152;5.846;2023-08-12T03:02:46;18.70;94.50
52787;DHT22;38661;53.152;5.846;2023-08-12T03:05:11;18.70;94.40
52787;DHT22;38661;53.152;5.846;2023-08-12T03:07:37;18.80;94.20
52787;DHT22;38661;53.152;5.846;2023-08-12T03:10:03;18.80;94.50
52787;DHT22;38661;53.152;5.846;2023-08-12T03:12:28;18.70;94.40
52787;DHT22;38661;53.152;5.846;2023-08-12T03:14:54;18.80;94.40
52787;DHT22;38661;53.152;5.846;2023-08-12T03:17:20;18.70;94.50
52787;DHT22;38661;53.152;5.846;2023-08-12T03:19:45;18.70;94.60
52787;DHT22;38661;53.152;5.846;2023-08-12T03:22:11;18.60;94.80
52787;DHT22;38661;53.152;5.846;2023-08-12T03:24:37;18.60;94.40
52787;DHT22;38661;53.152;5.846;2023-08-12T03:27:03;18.70;94.30
52787;DHT22;38661;53.152;5.846;2023-08-12T03:29:28;18.60;94.90
52787;DHT22;38661;53.152;5.846;2023-08-12T03:31:54;18.60;94.70
52787;DHT22;38661;53.152;5.846;2023-08-12T03:34:20;18.60;94.60
52787;DHT22;38661;53.152;5.846;2023-08-12T03:36:45;18.60;94.40
52787;DHT22;38661;53.152;5.846;2023-08-12T03:39:14;18.60;94.70
52787;DHT22;38661;53.152;5.846;2023-08-12T03:41:39;18.70;94.70
52787;DHT22;38661;53.152;5.846;2023-08-12T03:44:05;18.60;94.50
52787;DHT22;38661;53.152;5.846;2023-08-12T03:46:31;18.60;94.60
52787;DHT22;38661;53.152;5.846;2023-08-12T03:48:57;18.70;94.70
52787;DHT22;38661;53.152;5.846;2023-08-12T03:51:22;18.70;94.60
52787;DHT22;38661;53.152;5.846;2023-08-12T03:53:48;18.70;94.70
52787;DHT22;38661;53.152;5.846;2023-08-12T03:56:14;18.70;94.70
52787;DHT22;38661;53.152;5.846;2023-08-12T03:58:42;18.80;95.00
52787;DHT22;38661;53.152;5.846;2023-08-12T04:01:08;18.70;95.10
52787;DHT22;38661;53.152;5.846;2023-08-12T04:03:33;18.70;95.00
52787;DHT22;38661;53.152;5.846;2023-08-12T04:05:59;18.80;95.30
52787;DHT22;38661;53.152;5.846;2023-08-12T04:08:25;18.80;95.40
52787;DHT22;38661;53.152;5.846;2023-08-12T04:10:51;18.80;95.00
52787;DHT22;38661;53.152;5.846;2023-08-12T04:13:17;18.70;95.20
52787;DHT22;38661;53.152;5.846;2023-08-12T04:15:48;18.80;95.20
52787;DHT22;38661;53.152;5.846;2023-08-12T04:18:14;18.80;95.10
52787;DHT22;38661;53.152;5.846;2023-08-12T04:20:39;18.80;95.00
52787;DHT22;38661;53.152;5.846;2023-08-12T04:23:06;18.80;95.00
52787;DHT22;38661;53.152;5.846;2023-08-12T04:25:31;18.80;94.90
52787;DHT22;38661;53.152;5.846;2023-08-12T04:27:57;18.80;94.90
52787;DHT22;38661;53.152;5.846;2023-08-12T04:30:23;18.90;94.80
52787;DHT22;38661;53.152;5.846;2023-08-12T04:32:49;18.80;95.00
52787;DHT22;38661;53.152;5.846;2023-08-12T04:35:15;18.90;95.10
52787;DHT22;38661;53.152;5.846;2023-08-12T04:37:41;18.90;95.00
52787;DHT22;38661;53.152;5.846;2023-08-12T04:40:07;18.90;95.00
52787;DHT22;38661;53.152;5.846;2023-08-12T04:42:33;18.90;94.70
52787;DHT22;38661;53.152;5.846;2023-08-12T04:44:59;18.90;94.90
52787;DHT22;38661;53.152;5.846;2023-08-12T04:47:25;18.90;95.00
52787;DHT22;38661;53.152;5.846;2023-08-12T04:49:51;18.90;94.80
52787;DHT22;38661;53.152;5.846;2023-08-12T04:52:17;18.90;94.70
52787;DHT22;38661;53.152;5.846;2023-08-12T04:54:43;18.90;95.00
52787;DHT22;38661;53.152;5.846;2023-08-12T04:57:09;19.00;94.60
52787;DHT22;38661;53.152;5.846;2023-08-12T04:59:34;19.00;94.90
52787;DHT22;38661;53.152;5.846;2023-08-12T05:02:00;19.00;94.80
52787;DHT22;38661;53.152;5.846;2023-08-12T05:04:26;19.00;94.80
52787;DHT22;38661;53.152;5.846;2023-08-12T05:06:51;19.00;94.80
52787;DHT22;38661;53.152;5.846;2023-08-12T05:09:17;19.10;94.80
52787;DHT22;38661;53.152;5.846;2023-08-12T05:11:43;19.10;94.90
52787;DHT22;38661;53.152;5.846;2023-08-12T05:14:08;19.20;94.70
52787;DHT22;38661;53.152;5.846;2023-08-12T05:16:34;19.20;94.50
52787;DHT22;38661;53.152;5.846;2023-08-12T05:19:00;19.20;94.70
52787;DHT22;38661;53.152;5.846;2023-08-12T05:21:26;19.30;94.70
52787;DHT22;38661;53.152;5.846;2023-08-12T05:23:52;19.30;94.80
52787;DHT22;38661;53.152;5.846;2023-08-12T05:26:18;19.30;94.70
52787;DHT22;38661;53.152;5.846;2023-08-12T05:28:44;19.30;94.70
52787;DHT22;38661;53.152;5.846;2023-08-12T05:31:09;19.40;94.60
52787;DHT22;38661;53.152;5.846;2023-08-12T05:33:35;19.40;94.60
52787;DHT22;38661;53.152;5.846;2023-08-12T05:36:01;19.40;94.70
52787;DHT22;38661;53.152;5.846;2023-08-12T05:38:26;19.40;94.80
52787;DHT22;38661;53.152;5.846;2023-08-12T05:40:52;19.40;94.70
52787;DHT22;38661;53.152;5.846;2023-08-12T05:43:18;19.40;94.60
52787;DHT22;38661;53.152;5.846;2023-08-12T05:45:43;19.40;94.50
52787;DHT22;38661;53.152;5.846;2023-08-12T05:48:09;19.40;94.50
52787;DHT22;38661;53.152;5.846;2023-08-12T05:50:35;19.40;94.50
52787;DHT22;38661;53.152;5.846;2023-08-12T05:53:00;19.40;94.80
52787;DHT22;38661;53.152;5.846;2023-08-12T05:55:26;19.40;94.70
52787;DHT22;38661;53.152;5.846;2023-08-12T05:57:51;19.40;94.90
52787;DHT22;38661;53.152;5.846;2023-08-12T06:00:17;19.40;94.70
52787;DHT22;38661;53.152;5.846;2023-08-12T06:02:43;19.50;94.80
52787;DHT22;38661;53.152;5.846;2023-08-12T06:05:09;19.50;94.80
52787;DHT22;38661;53.152;5.846;2023-08-12T06:07:34;19.40;94.90
52787;DHT22;38661;53.152;5.846;2023-08-12T06:10:01;19.40;95.00
52787;DHT22;38661;53.152;5.846;2023-08-12T06:12:26;19.50;94.90
52787;DHT22;38661;53.152;5.846;2023-08-12T06:14:52;19.50;94.80
52787;DHT22;38661;53.152;5.846;2023-08-12T06:17:18;19.50;94.70
52787;DHT22;38661;53.152;5.846;2023-08-12T06:19:43;19.50;94.80
52787;DHT22;38661;53.152;5.846;2023-08-12T06:22:09;19.50;94.90
52787;DHT22;38661;53.152;5.846;2023-08-12T06:24:35;19.50;94.80
52787;DHT22;38661;53.152;5.846;2023-08-12T06:27:01;19.50;94.90
52787;DHT22;38661;53.152;5.846;2023-08-12T06:29:26;19.50;95.00
52787;DHT22;38661;53.152;5.846;2023-08-12T06:31:53;19.60;94.90
52787;DHT22;38661;53.152;5.846;2023-08-12T06:34:18;19.60;95.00
52787;DHT22;38661;53.152;5.846;2023-08-12T06:36:44;19.60;94.80
52787;DHT22;38661;53.152;5.846;2023-08-12T06:39:10;19.60;95.00
52787;DHT22;38661;53.152;5.846;2023-08-12T06:41:35;19.60;95.00
52787;DHT22;38661;53.152;5.846;2023-08-12T06:44:01;19.70;94.90
52787;DHT22;38661;53.152;5.846;2023-08-12T06:46:29;19.70;95.00
52787;DHT22;38661;53.152;5.846;2023-08-12T06:48:56;19.70;94.70
52787;DHT22;38661;53.152;5.846;2023-08-12T06:51:22;19.80;94.70
52787;DHT22;38661;53.152;5.846;2023-08-12T06:53:47;19.80;94.80
52787;DHT22;38661;53.152;5.846;2023-08-12T06:56:13;19.80;94.90
52787;DHT22;38661;53.152;5.846;2023-08-12T06:58:39;19.80;94.80
52787;DHT22;38661;53.152;5.846;2023-08-12T07:01:05;19.80;94.70
52787;DHT22;38661;53.152;5.846;2023-08-12T07:03:31;19.90;94.60
52787;DHT22;38661;53.152;5.846;2023-08-12T07:05:58;19.90;94.50
52787;DHT22;38661;53.152;5.846;2023-08-12T07:08:24;19.90;94.70
52787;DHT22;38661;53.152;5.846;2023-08-12T07:10:50;19.90;94.80
52787;DHT22;38661;53.152;5.846;2023-08-12T07:13:15;19.90;94.80
52787;DHT22;38661;53.152;5.846;2023-08-12T07:15:41;19.90;94.80
52787;DHT22;38661;53.152;5.846;2023-08-12T07:18:07;19.90;94.80
52787;DHT22;38661;53.152;5.846;2023-08-12T07:20:33;19.90;94.90
52787;DHT22;38661;53.152;5.846;2023-08-12T07:22:58;19.90;94.80
52787;DHT22;38661;53.152;5.846;2023-08-12T07:25:24;19.90;94.80
52787;DHT22;38661;53.152;5.846;2023-08-12T07:27:49;20.00;94.80
52787;DHT22;38661;53.152;5.846;2023-08-12T07:30:15;20.00;94.80
52787;DHT22;38661;53.152;5.846;2023-08-12T07:32:41;20.00;94.80
52787;DHT22;38661;53.152;5.846;2023-08-12T07:35:07;20.00;94.70
52787;DHT22;38661;53.152;5.846;2023-08-12T07:37:33;20.00;94.80
52787;DHT22;38661;53.152;5.846;2023-08-12T07:39:59;20.00;94.80
52787;DHT22;38661;53.152;5.846;2023-08-12T07:42:24;20.00;94.80
52787;DHT22;38661;53.152;5.846;2023-08-12T07:44:50;19.90;94.70
52787;DHT22;38661;53.152;5.846;2023-08-12T07:47:16;19.90;94.70
52787;DHT22;38661;53.152;5.846;2023-08-12T07:49:42;19.90;94.70
52787;DHT22;38661;53.152;5.846;2023-08-12T07:52:09;20.00;94.70
52787;DHT22;38661;53.152;5.846;2023-08-12T07:54:35;20.00;94.70
52787;DHT22;38661;53.152;5.846;2023-08-12T07:57:00;20.00;94.90
52787;DHT22;38661;53.152;5.846;2023-08-12T07:59:26;19.90;95.30
52787;DHT22;38661;53.152;5.846;2023-08-12T08:01:52;19.90;95.50
52787;DHT22;38661;53.152;5.846;2023-08-12T08:04:18;19.90;95.60
52787;DHT22;38661;53.152;5.846;2023-08-12T08:06:43;19.90;95.80
52787;DHT22;38661;53.152;5.846;2023-08-12T08:09:09;19.90;95.70
52787;DHT22;38661;53.152;5.846;2023-08-12T08:11:36;19.90;95.50
52787;DHT22;38661;53.152;5.846;2023-08-12T08:14:02;19.90;95.60
52787;DHT22;38661;53.152;5.846;2023-08-12T08:16:27;19.90;95.60
52787;DHT22;38661;53.152;5.846;2023-08-12T08:18:53;19.90;95.60
52787;DHT22;38661;53.152;5.846;2023-08-12T08:21:19;19.90;96.00
52787;DHT22;38661;53.152;5.846;2023-08-12T08:23:45;19.90;95.80
52787;DHT22;38661;53.152;5.846;2023-08-12T08:26:11;19.90;95.90
52787;DHT22;38661;53.152;5.846;2023-08-12T08:28:37;19.90;95.80
52787;DHT22;38661;53.152;5.846;2023-08-12T08:31:03;19.90;96.20
52787;DHT22;38661;53.152;5.846;2023-08-12T08:33:29;19.90;96.10
52787;DHT22;38661;53.152;5.846;2023-08-12T08:35:55;19.80;96.00
52787;DHT22;38661;53.152;5.846;2023-08-12T08:38:21;19.90;96.10
52787;DHT22;38661;53.152;5.846;2023-08-12T08:40:49;19.90;95.80
52787;DHT22;38661;53.152;5.846;2023-08-12T08:43:22;19.90;95.80
52787;DHT22;38661;53.152;5.846;2023-08-12T08:45:53;19.90;95.80
52787;DHT22;38661;53.152;5.846;2023-08-12T08:48:19;19.90;96.00
52787;DHT22;38661;53.152;5.846;2023-08-12T08:50:47;19.90;95.90
52787;DHT22;38661;53.152;5.846;2023-08-12T08:53:14;19.90;96.10
52787;DHT22;38661;53.152;5.846;2023-08-12T08:55:41;19.90;96.50
52787;DHT22;38661;53.152;5.846;2023-08-12T08:58:07;19.90;96.50
52787;DHT22;38661;53.152;5.846;2023-08-12T09:00:33;19.90;96.50
52787;DHT22;38661;53.152;5.846;2023-08-12T09:02:59;19.90;96.60
52787;DHT22;38661;53.152;5.846;2023-08-12T09:05:26;19.90;96.50
52787;DHT22;38661;53.152;5.846;2023-08-12T09:07:54;19.90;96.50
52787;DHT22;38661;53.152;5.846;2023-08-12T09:10:21;19.90;96.40
52787;DHT22;38661;53.152;5.846;2023-08-12T09:12:47;19.90;96.40
52787;DHT22;38661;53.152;5.846;2023-08-12T09:15:13;19.90;96.30
52787;DHT22;38661;53.152;5.846;2023-08-12T09:17:39;19.90;96.40
52787;DHT22;38661;53.152;5.846;2023-08-12T09:20:06;19.90;96.20
52787;DHT22;38661;53.152;5.846;2023-08-12T09:22:40;19.90;96.20
52787;DHT22;38661;53.152;5.846;2023-08-12T09:25:07;19.90;96.20
52787;DHT22;38661;53.152;5.846;2023-08-12T09:27:36;19.90;96.10
52787;DHT22;38661;53.152;5.846;2023-08-12T09:30:05;19.90;96.10
52787;DHT22;38661;53.152;5.846;2023-08-12T09:32:31;19.90;96.20
52787;DHT22;38661;53.152;5.846;2023-08-12T09:34:59;20.00;96.50
52787;DHT22;38661;53.152;5.846;2023-08-12T09:37:28;20.00;96.50
52787;DHT22;38661;53.152;5.846;2023-08-12T09:39:54;20.00;96.60
52787;DHT22;38661;53.152;5.846;2023-08-12T09:42:19;20.00;96.50
52787;DHT22;38661;53.152;5.846;2023-08-12T09:44:46;20.00;96.40
52787;DHT22;38661;53.152;5.846;2023-08-12T09:47:11;20.00;96.40
52787;DHT22;38661;53.152;5.846;2023-08-12T09:49:38;20.00;96.40
52787;DHT22;38661;53.152;5.846;2023-08-12T09:52:05;19.90;96.10
52787;DHT22;38661;53.152;5.846;2023-08-12T09:54:32;19.60;96.00
52787;DHT22;38661;53.152;5.846;2023-08-12T09:56:59;19.50;95.90
52787;DHT22;38661;53.152;5.846;2023-08-12T09:59:31;19.20;95.10
52787;DHT22;38661;53.152;5.846;2023-08-12T10:02:04;19.00;94.70
52787;DHT22;38661;53.152;5.846;2023-08-12T10:04:41;18.80;94.50
52787;DHT22;38661;53.152;5.846;2023-08-12T10:07:09;18.80;94.00
52787;DHT22;38661;53.152;5.846;2023-08-12T10:09:36;18.70;93.80
52787;DHT22;38661;53.152;5.846;2023-08-12T10:12:02;18.60;93.70
52787;DHT22;38661;53.152;5.846;2023-08-12T10:14:28;18.60;93.60
52787;DHT22;38661;53.152;5.846;2023-08-12T10:16:55;18.60;93.10
52787;DHT22;38661;53.152;5.846;2023-08-12T10:19:22;18.50;93.00
52787;DHT22;38661;53.152;5.846;2023-08-12T10:21:55;18.50;93.10
52787;DHT22;38661;53.152;5.846;2023-08-12T10:24:23;18.40;92.70
52787;DHT22;38661;53.152;5.846;2023-08-12T10:26:51;18.30;92.30
52787;DHT22;38661;53.152;5.846;2023-08-12T10:29:19;18.20;92.20
52787;DHT22;38661;53.152;5.846;2023-08-12T10:31:46;18.20;91.90
52787;DHT22;38661;53.152;5.846;2023-08-12T10:34:22;18.20;91.80
52787;DHT22;38661;53.152;5.846;2023-08-12T10:36:54;18.20;91.80
52787;DHT22;38661;53.152;5.846;2023-08-12T10:39:25;18.20;91.90
52787;DHT22;38661;53.152;5.846;2023-08-12T10:41:51;18.30;92.10
52787;DHT22;38661;53.152;5.846;2023-08-12T10:44:20;18.40;92.10
52787;DHT22;38661;53.152;5.846;2023-08-12T10:46:51;18.40;92.20
52787;DHT22;38661;53.152;5.846;2023-08-12T10:49:20;18.50;92.30
52787;DHT22;38661;53.152;5.846;2023-08-12T10:51:50;18.50;91.90
52787;DHT22;38661;53.152;5.846;2023-08-12T10:54:28;18.50;91.90
52787;DHT22;38661;53.152;5.846;2023-08-12T11:02:17;18.60;92.20
52787;DHT22;38661;53.152;5.846;2023-08-12T11:04:44;18.50;92.10
52787;DHT22;38661;53.152;5.846;2023-08-12T11:07:20;18.50;92.30
52787;DHT22;38661;53.152;5.846;2023-08-12T11:09:52;18.50;92.50
52787;DHT22;38661;53.152;5.846;2023-08-12T11:12:31;18.60;92.60
52787;DHT22;38661;53.152;5.846;2023-08-12T11:14:59;18.50;92.50
52787;DHT22;38661;53.152;5.846;2023-08-12T11:17:42;18.50;92.40
52787;DHT22;38661;53.152;5.846;2023-08-12T11:20:10;18.60;92.50
52787;DHT22;38661;53.152;5.846;2023-08-12T11:22:38;18.60;92.60
52787;DHT22;38661;53.152;5.846;2023-08-12T11:25:05;18.60;92.80
52787;DHT22;38661;53.152;5.846;2023-08-12T11:27:52;18.60;92.80
52787;DHT22;38661;53.152;5.846;2023-08-12T11:30:19;18.70;92.80
52787;DHT22;38661;53.152;5.846;2023-08-12T11:32:50;18.70;92.90
52787;DHT22;38661;53.152;5.846;2023-08-12T11:35:17;18.70;93.00
52787;DHT22;38661;53.152;5.846;2023-08-12T11:37:51;18.80;92.90
52787;DHT22;38661;53.152;5.846;2023-08-12T11:40:22;18.80;93.00
52787;DHT22;38661;53.152;5.846;2023-08-12T11:42:49;18.80;93.00
52787;DHT22;38661;53.152;5.846;2023-08-12T11:45:18;18.90;93.00
52787;DHT22;38661;53.152;5.846;2023-08-12T11:47:44;18.90;93.00
52787;DHT22;38661;53.152;5.846;2023-08-12T11:50:12;18.90;93.00
52787;DHT22;38661;53.152;5.846;2023-08-12T11:52:39;19.00;92.20
52787;DHT22;38661;53.152;5.846;2023-08-12T11:55:06;19.10;91.20
52787;DHT22;38661;53.152;5.846;2023-08-12T11:57:33;19.20;90.70
52787;DHT22;38661;53.152;5.846;2023-08-12T12:00:00;19.40;90.20
52787;DHT22;38661;53.152;5.846;2023-08-12T12:02:27;19.40;90.30
52787;DHT22;38661;53.152;5.846;2023-08-12T12:04:53;19.50;89.80
52787;DHT22;38661;53.152;5.846;2023-08-12T12:07:24;19.60;88.90
52787;DHT22;38661;53.152;5.846;2023-08-12T12:09:51;19.80;87.40
52787;DHT22;38661;53.152;5.846;2023-08-12T12:12:18;19.90;86.70
52787;DHT22;38661;53.152;5.846;2023-08-12T12:14:46;20.20;86.70
52787;DHT22;38661;53.152;5.846;2023-08-12T12:17:12;20.50;86.90
52787;DHT22;38661;53.152;5.846;2023-08-12T12:19:40;20.90;86.60
52787;DHT22;38661;53.152;5.846;2023-08-12T12:22:07;21.20;86.30
52787;DHT22;38661;53.152;5.846;2023-08-12T12:24:44;21.50;85.10
52787;DHT22;38661;53.152;5.846;2023-08-12T12:27:12;21.70;83.60
52787;DHT22;38661;53.152;5.846;2023-08-12T12:29:37;21.90;82.50
52787;DHT22;38661;53.152;5.846;2023-08-12T12:32:03;22.10;82.70
52787;DHT22;38661;53.152;5.846;2023-08-12T12:34:29;22.40;82.40
52787;DHT22;38661;53.152;5.846;2023-08-12T12:36:55;22.40;80.60
52787;DHT22;38661;53.152;5.846;2023-08-12T12:39:21;22.50;80.20
52787;DHT22;38661;53.152;5.846;2023-08-12T12:41:49;22.70;79.10
52787;DHT22;38661;53.152;5.846;2023-08-12T12:44:14;22.90;79.40
52787;DHT22;38661;53.152;5.846;2023-08-12T12:46:40;22.90;78.40
52787;DHT22;38661;53.152;5.846;2023-08-12T12:49:06;22.90;77.20
52787;DHT22;38661;53.152;5.846;2023-08-12T12:51:31;23.10;76.50
52787;DHT22;38661;53.152;5.846;2023-08-12T12:53:57;23.20;75.90
52787;DHT22;38661;53.152;5.846;2023-08-12T12:56:23;23.20;74.70
52787;DHT22;38661;53.152;5.846;2023-08-12T12:58:49;23.40;75.20
52787;DHT22;38661;53.152;5.846;2023-08-12T13:01:15;23.40;74.00
52787;DHT22;38661;53.152;5.846;2023-08-12T13:03:40;23.50;72.50
52787;DHT22;38661;53.152;5.846;2023-08-12T13:06:06;23.60;72.60
52787;DHT22;38661;53.152;5.846;2023-08-12T13:08:32;23.70;72.10
52787;DHT22;38661;53.152;5.846;2023-08-12T13:10:59;23.90;72.20
52787;DHT22;38661;53.152;5.846;2023-08-12T13:13:24;24.00;71.30
52787;DHT22;38661;53.152;5.846;2023-08-12T13:15:50;24.00;70.10
52787;DHT22;38661;53.152;5.846;2023-08-12T13:18:16;24.00;69.60
52787;DHT22;38661;53.152;5.846;2023-08-12T13:20:42;24.00;68.10
52787;DHT22;38661;53.152;5.846;2023-08-12T13:23:08;24.10;68.00
52787;DHT22;38661;53.152;5.846;2023-08-12T13:25:34;24.20;67.50
52787;DHT22;38661;53.152;5.846;2023-08-12T13:28:00;24.30;65.80
52787;DHT22;38661;53.152;5.846;2023-08-12T13:30:27;24.30;64.50
52787;DHT22;38661;53.152;5.846;2023-08-12T13:32:52;24.50;65.70
52787;DHT22;38661;53.152;5.846;2023-08-12T13:35:18;24.40;63.00
52787;DHT22;38661;53.152;5.846;2023-08-12T13:37:44;24.50;62.50
52787;DHT22;38661;53.152;5.846;2023-08-12T13:40:10;24.60;62.80
52787;DHT22;38661;53.152;5.846;2023-08-12T13:42:37;24.60;62.30
52787;DHT22;38661;53.152;5.846;2023-08-12T13:45:04;24.50;61.60
52787;DHT22;38661;53.152;5.846;2023-08-12T13:47:30;24.50;62.00
52787;DHT22;38661;53.152;5.846;2023-08-12T13:49:56;24.40;61.80
52787;DHT22;38661;53.152;5.846;2023-08-12T13:52:22;24.40;62.50
52787;DHT22;38661;53.152;5.846;2023-08-12T13:54:48;24.50;62.50
52787;DHT22;38661;53.152;5.846;2023-08-12T13:57:13;24.70;62.30
52787;DHT22;38661;53.152;5.846;2023-08-12T13:59:40;24.60;60.90
52787;DHT22;38661;53.152;5.846;2023-08-12T14:02:09;24.70;60.90
52787;DHT22;38661;53.152;5.846;2023-08-12T14:04:35;24.80;61.20
52787;DHT22;38661;53.152;5.846;2023-08-12T14:07:03;24.90;61.00
52787;DHT22;38661;53.152;5.846;2023-08-12T14:09:29;25.00;60.90
52787;DHT22;38661;53.152;5.846;2023-08-12T14:11:54;25.10;60.70
52787;DHT22;38661;53.152;5.846;2023-08-12T14:14:20;25.20;59.60
52787;DHT22;38661;53.152;5.846;2023-08-12T14:16:46;25.10;59.00
52787;DHT22;38661;53.152;5.846;2023-08-12T14:19:12;25.00;57.90
52787;DHT22;38661;53.152;5.846;2023-08-12T14:21:42;24.80;58.60
52787;DHT22;38661;53.152;5.846;2023-08-12T14:24:08;24.70;59.20
52787;DHT22;38661;53.152;5.846;2023-08-12T14:26:34;24.80;59.20
52787;DHT22;38661;53.152;5.846;2023-08-12T14:29:00;24.80;59.30
52787;DHT22;38661;53.152;5.846;2023-08-12T14:31:25;24.80;59.80
52787;DHT22;38661;53.152;5.846;2023-08-12T14:33:51;24.70;60.10
52787;DHT22;38661;53.152;5.846;2023-08-12T14:36:17;24.80;59.20
52787;DHT22;38661;53.152;5.846;2023-08-12T14:38:42;24.70;60.50
52787;DHT22;38661;53.152;5.846;2023-08-12T14:41:08;24.60;60.10
52787;DHT22;38661;53.152;5.846;2023-08-12T14:43:34;24.70;61.50
52787;DHT22;38661;53.152;5.846;2023-08-12T14:45:59;24.60;61.00
52787;DHT22;38661;53.152;5.846;2023-08-12T14:48:25;24.70;60.80
52787;DHT22;38661;53.152;5.846;2023-08-12T14:50:51;24.90;61.70
52787;DHT22;38661;53.152;5.846;2023-08-12T14:53:17;25.00;60.80
52787;DHT22;38661;53.152;5.846;2023-08-12T14:55:42;24.90;60.50
52787;DHT22;38661;53.152;5.846;2023-08-12T14:58:08;24.80;58.50
52787;DHT22;38661;53.152;5.846;2023-08-12T15:00:34;24.90;60.50
52787;DHT22;38661;53.152;5.846;2023-08-12T15:03:00;24.90;62.00
52787;DHT22;38661;53.152;5.846;2023-08-12T15:05:25;24.80;62.20
52787;DHT22;38661;53.152;5.846;2023-08-12T15:07:51;24.70;62.70
52787;DHT22;38661;53.152;5.846;2023-08-12T15:10:17;24.70;62.50
52787;DHT22;38661;53.152;5.846;2023-08-12T15:12:42;24.70;62.80
52787;DHT22;38661;53.152;5.846;2023-08-12T15:15:08;24.80;63.80
52787;DHT22;38661;53.152;5.846;2023-08-12T15:17:34;24.80;63.80
52787;DHT22;38661;53.152;5.846;2023-08-12T15:20:00;24.90;62.40
52787;DHT22;38661;53.152;5.846;2023-08-12T15:22:25;24.80;63.30
52787;DHT22;38661;53.152;5.846;2023-08-12T15:24:52;24.80;63.50
52787;DHT22;38661;53.152;5.846;2023-08-12T15:27:18;24.80;63.60
52787;DHT22;38661;53.152;5.846;2023-08-12T15:29:44;24.80;63.60
52787;DHT22;38661;53.152;5.846;2023-08-12T15:32:10;24.70;64.00
52787;DHT22;38661;53.152;5.846;2023-08-12T15:34:36;24.90;63.30
52787;DHT22;38661;53.152;5.846;2023-08-12T15:37:02;24.80;62.70